Time;durP1;ratioP1;P1;durP2;ratioP2;P2;SDS_P1;SDS_P2;PMS_P1;PMS_P2;Temp;Humidity;BMP_temperature;BMP_pressure;BME280_temperature;BME280_humidity;BME280_pressure;Samples;Min_cycle;Max_cycle;Signal;HPM_P1;HPM_P2
2022/04/30 00:00:05;;;;;;;7.13;4.85;;;9.40;57.90;;;;;;5035882;28;20038;-77
2022/04/30 00:02:31;;;;;;;8.18;5.57;;;9.40;57.60;;;;;;5035283;28;20046;-76
2022/04/30 00:04:56;;;;;;;7.32;5.13;;;9.40;57.60;;;;;;5036497;28;20048;-76
2022/04/30 00:07:22;;;;;;;7.18;5.35;;;9.30;57.60;;;;;;5036301;28;20085;-75
2022/04/30 00:09:49;;;;;;;7.00;5.13;;;9.30;57.60;;;;;;5036381;28;20041;-76
2022/04/30 00:12:16;;;;;;;8.48;5.57;;;9.30;57.70;;;;;;5035067;28;20049;-76
2022/04/30 00:14:42;;;;;;;7.72;5.55;;;9.30;57.70;;;;;;5036461;28;20037;-77
2022/04/30 00:17:08;;;;;;;7.28;5.38;;;9.20;57.70;;;;;;5036023;28;20457;-76
2022/04/30 00:19:34;;;;;;;7.50;5.18;;;9.20;57.80;;;;;;5036138;28;20043;-75
2022/04/30 00:22:00;;;;;;;8.40;5.90;;;9.20;57.90;;;;;;5035797;28;20135;-75
2022/04/30 00:24:26;;;;;;;7.55;5.43;;;9.10;57.80;;;;;;5036055;28;20053;-75
2022/04/30 00:26:53;;;;;;;9.45;6.15;;;9.10;57.80;;;;;;5036033;28;20068;-76
2022/04/30 00:29:19;;;;;;;9.95;6.25;;;9.10;57.90;;;;;;5036086;28;20358;-76
2022/04/30 00:31:45;;;;;;;8.77;6.35;;;9.10;57.90;;;;;;5050768;28;20086;-76
2022/04/30 00:34:11;;;;;;;7.97;5.65;;;9.00;57.90;;;;;;5035901;28;20049;-76
2022/04/30 00:36:36;;;;;;;9.88;5.07;;;9.00;58.00;;;;;;5067774;28;20499;-76
2022/04/30 00:39:03;;;;;;;9.18;5.15;;;9.00;58.00;;;;;;5034451;28;20095;-75
2022/04/30 00:41:32;;;;;;;8.95;5.18;;;8.90;58.00;;;;;;5067659;28;20049;-75
2022/04/30 00:43:58;;;;;;;8.57;5.57;;;9.00;58.10;;;;;;5035595;28;20056;-76
2022/04/30 00:46:25;;;;;;;5.70;4.97;;;8.90;58.10;;;;;;5019821;28;20393;-76
2022/04/30 00:48:53;;;;;;;7.97;5.63;;;8.90;58.10;;;;;;5018041;28;20049;-75
2022/04/30 00:51:23;;;;;;;8.27;5.38;;;8.90;58.20;;;;;;5017293;28;20042;-76
2022/04/30 00:53:53;;;;;;;7.38;5.35;;;8.90;58.20;;;;;;5015703;28;20046;-77
2022/04/30 00:56:31;;;;;;;7.90;5.60;;;8.80;58.20;;;;;;5015463;28;20048;-76
2022/04/30 00:58:57;;;;;;;7.13;5.30;;;8.80;58.20;;;;;;5015489;28;20501;-76
2022/04/30 01:01:24;;;;;;;6.72;5.72;;;8.80;58.20;;;;;;5015519;28;20140;-75
2022/04/30 01:03:50;;;;;;;7.82;5.72;;;8.80;58.20;;;;;;5014189;28;20433;-76
2022/04/30 01:06:15;;;;;;;8.57;5.90;;;8.70;58.60;;;;;;5015399;28;20050;-76
2022/04/30 01:08:41;;;;;;;6.72;5.43;;;8.70;58.20;;;;;;5015319;28;20066;-76
2022/04/30 01:11:07;;;;;;;8.80;5.40;;;8.70;58.20;;;;;;5029948;28;20397;-76
2022/04/30 01:13:35;;;;;;;9.77;5.45;;;8.70;58.20;;;;;;5035193;28;20038;-76
2022/04/30 01:16:06;;;;;;;7.38;5.47;;;8.70;58.30;;;;;;5035094;28;20116;-76
2022/04/30 01:18:36;;;;;;;9.10;5.88;;;8.60;58.30;;;;;;5033924;28;20042;-76
2022/04/30 01:21:10;;;;;;;6.50;5.15;;;8.60;58.30;;;;;;5066487;28;20065;-76
2022/04/30 01:23:36;;;;;;;6.75;5.18;;;8.60;58.70;;;;;;5033474;28;20132;-76
2022/04/30 01:26:03;;;;;;;7.55;5.30;;;8.60;58.40;;;;;;5034745;28;20064;-76
2022/04/30 01:28:29;;;;;;;7.43;5.30;;;8.50;58.40;;;;;;5034990;28;20053;-76
2022/04/30 01:30:55;;;;;;;10.65;6.20;;;8.50;58.40;;;;;;5066709;28;20058;-75
2022/04/30 01:38:58;;;;;;;6.53;5.47;;;8.40;58.50;;;;;;5012209;28;20101;-76
2022/04/30 01:41:24;;;;;;;7.85;5.45;;;8.40;58.60;;;;;;4996584;28;20561;-75
2022/04/30 01:43:50;;;;;;;8.02;5.50;;;8.40;58.60;;;;;;4995534;28;20069;-76
2022/04/30 01:46:16;;;;;;;8.65;5.55;;;8.30;58.60;;;;;;4996244;28;20121;-76
2022/04/30 01:48:43;;;;;;;7.22;5.25;;;8.30;58.60;;;;;;5012552;28;20121;-75
2022/04/30 01:51:12;;;;;;;7.35;4.95;;;8.30;58.70;;;;;;5012353;28;20054;-75
2022/04/30 01:53:39;;;;;;;7.97;5.55;;;8.30;58.80;;;;;;5012814;28;20091;-75
2022/04/30 01:56:05;;;;;;;8.00;5.70;;;8.30;58.80;;;;;;4995908;28;20053;-75
2022/04/30 01:58:30;;;;;;;7.03;5.43;;;8.20;58.80;;;;;;4996092;28;20050;-75
2022/04/30 02:00:56;;;;;;;9.18;5.65;;;8.20;58.80;;;;;;5012594;28;20099;-76
2022/04/30 02:03:23;;;;;;;6.78;5.30;;;8.20;58.90;;;;;;5012298;28;20163;-75
2022/04/30 02:05:48;;;;;;;7.15;5.38;;;8.20;59.00;;;;;;5012489;28;20049;-75
2022/04/30 02:08:18;;;;;;;7.53;5.38;;;8.10;58.90;;;;;;5012261;28;20046;-76
2022/04/30 02:10:46;;;;;;;8.77;5.72;;;8.10;59.00;;;;;;4995765;28;20046;-76
2022/04/30 02:13:13;;;;;;;7.90;5.50;;;8.10;59.00;;;;;;4980011;28;20165;-76
2022/04/30 02:15:40;;;;;;;7.45;5.65;;;8.10;59.10;;;;;;5008465;28;20085;-76
2022/04/30 02:18:10;;;;;;;7.68;5.38;;;8.10;59.10;;;;;;5033904;28;20037;-76
2022/04/30 02:20:38;;;;;;;9.40;5.90;;;8.00;59.10;;;;;;5015747;28;20054;-76
2022/04/30 02:23:05;;;;;;;8.10;5.88;;;8.10;59.30;;;;;;5033642;28;20061;-75
2022/04/30 02:25:31;;;;;;;6.78;4.72;;;8.00;59.30;;;;;;5049218;28;20060;-75
2022/04/30 02:28:04;;;;;;;8.15;6.00;;;8.00;59.40;;;;;;5066081;28;20049;-75
2022/04/30 02:30:31;;;;;;;6.50;4.97;;;8.00;59.50;;;;;;5033803;28;20057;-76
2022/04/30 02:33:03;;;;;;;7.97;5.63;;;8.00;59.50;;;;;;5033655;28;20536;-76
2022/04/30 02:35:33;;;;;;;9.18;4.90;;;8.00;59.50;;;;;;5034019;28;20435;-76
2022/04/30 02:38:00;;;;;;;7.43;5.60;;;8.00;59.50;;;;;;5033647;28;20045;-76
2022/04/30 02:40:28;;;;;;;7.30;5.57;;;8.00;59.60;;;;;;5033744;28;20432;-76
2022/04/30 02:42:54;;;;;;;6.72;5.35;;;8.00;59.60;;;;;;5033820;28;20137;-76
2022/04/30 02:45:22;;;;;;;7.38;5.72;;;8.00;59.60;;;;;;5033662;28;20085;-76
2022/04/30 02:47:53;;;;;;;7.15;5.65;;;8.00;59.70;;;;;;5032781;28;20481;-76
2022/04/30 02:50:20;;;;;;;8.38;5.20;;;8.00;59.60;;;;;;5033631;28;20046;-76
2022/04/30 02:52:46;;;;;;;7.78;5.28;;;7.90;59.50;;;;;;5033649;28;20045;-75
2022/04/30 02:55:12;;;;;;;6.13;5.13;;;7.90;59.40;;;;;;5036927;28;20078;-76
2022/04/30 03:00:39;;;;;;;6.88;5.22;;;7.90;59.30;;;;;;5036560;28;20041;-75
2022/04/30 03:03:09;;;;;;;8.27;5.30;;;7.90;59.40;;;;;;5037643;28;20396;-76
2022/04/30 03:05:35;;;;;;;6.50;4.85;;;7.90;59.40;;;;;;5037506;28;20041;-76
2022/04/30 03:08:06;;;;;;;7.93;6.05;;;7.90;59.40;;;;;;5037540;28;20053;-76
2022/04/30 03:10:32;;;;;;;7.70;5.03;;;7.90;59.40;;;;;;5069775;28;20075;-75
2022/04/30 03:12:58;;;;;;;6.43;4.82;;;7.90;59.40;;;;;;5037366;28;20485;-75
2022/04/30 03:15:27;;;;;;;9.60;5.63;;;7.80;59.40;;;;;;5037432;28;20425;-77
2022/04/30 03:23:21;;;;;;;6.93;4.72;;;7.80;59.40;;;;;;5037025;28;20084;-75
2022/04/30 03:25:47;;;;;;;7.15;5.40;;;7.80;59.40;;;;;;5037385;28;20073;-76
2022/04/30 03:28:13;;;;;;;7.25;5.05;;;7.80;59.50;;;;;;5037237;28;20524;-75
2022/04/30 03:30:38;;;;;;;6.85;5.05;;;7.80;59.50;;;;;;5068998;28;20041;-75
2022/04/30 03:33:04;;;;;;;9.60;6.18;;;7.80;59.60;;;;;;5037028;28;20065;-75
2022/04/30 03:35:29;;;;;;;7.60;4.78;;;7.80;59.60;;;;;;5037023;28;20041;-75
2022/04/30 03:37:55;;;;;;;7.25;5.43;;;7.80;59.70;;;;;;5036201;28;20037;-75
2022/04/30 03:40:22;;;;;;;8.63;5.72;;;7.80;59.70;;;;;;5036714;28;20048;-76
2022/04/30 03:42:48;;;;;;;8.90;5.55;;;7.80;59.70;;;;;;5036717;28;20140;-75
2022/04/30 03:45:14;;;;;;;8.77;5.18;;;7.80;59.70;;;;;;5068687;28;20053;-75
2022/04/30 03:47:40;;;;;;;8.48;6.28;;;7.80;59.70;;;;;;5068734;28;20053;-74
2022/04/30 03:50:07;;;;;;;7.15;5.05;;;7.80;60.10;;;;;;5036737;28;20045;-75
2022/04/30 03:52:33;;;;;;;10.05;5.65;;;7.80;59.80;;;;;;5036493;28;20087;-74
2022/04/30 03:54:59;;;;;;;7.07;5.00;;;7.80;59.80;;;;;;5036433;28;20042;-75
2022/04/30 03:57:25;;;;;;;7.93;5.50;;;7.80;59.80;;;;;;5035181;28;20137;-75
2022/04/30 03:59:51;;;;;;;8.80;5.65;;;7.70;59.70;;;;;;5035807;28;20392;-75
2022/04/30 04:02:18;;;;;;;7.85;5.28;;;7.80;59.80;;;;;;5068465;28;20049;-75
2022/04/30 04:04:44;;;;;;;9.60;6.05;;;7.80;59.80;;;;;;5036289;28;20049;-76
2022/04/30 04:07:10;;;;;;;7.20;5.00;;;7.80;59.90;;;;;;5034307;28;20053;-76
2022/04/30 04:09:36;;;;;;;10.15;5.90;;;7.80;59.80;;;;;;5068497;28;20090;-75
2022/04/30 04:12:02;;;;;;;7.72;5.25;;;7.80;59.80;;;;;;5068303;28;20057;-75
2022/04/30 04:19:56;;;;;;;9.27;6.35;;;7.80;60.00;;;;;;5036111;28;20049;-76
2022/04/30 04:22:21;;;;;;;7.13;5.03;;;7.70;60.30;;;;;;5067083;28;20136;-76
2022/04/30 04:27:31;;;;;;;8.05;5.55;;;7.70;60.00;;;;;;5034716;28;20060;-75
2022/04/30 04:29:57;;;;;;;9.35;5.97;;;7.70;60.00;;;;;;5035850;28;20128;-76
2022/04/30 04:32:24;;;;;;;10.68;6.30;;;7.80;60.10;;;;;;5068185;28;20436;-76
2022/04/30 04:34:50;;;;;;;8.45;5.28;;;7.80;60.20;;;;;;5035685;28;20429;-76
2022/04/30 04:37:15;;;;;;;8.73;5.75;;;7.70;60.20;;;;;;5036034;28;20112;-76
2022/04/30 04:39:42;;;;;;;6.82;5.43;;;7.80;60.30;;;;;;5035894;28;20037;-75
2022/04/30 04:42:07;;;;;;;8.10;5.63;;;7.80;60.30;;;;;;5067114;28;20053;-76
2022/04/30 04:44:34;;;;;;;8.38;6.38;;;7.80;60.30;;;;;;5035446;28;20065;-76
2022/04/30 04:47:00;;;;;;;7.28;5.40;;;7.80;60.40;;;;;;5067581;28;20049;-76
2022/04/30 04:49:27;;;;;;;8.15;5.93;;;7.80;60.50;;;;;;5035334;28;20045;-76
2022/04/30 04:51:53;;;;;;;8.05;5.57;;;7.80;60.50;;;;;;5035295;28;20392;-75
2022/04/30 04:54:19;;;;;;;8.57;6.38;;;7.80;60.50;;;;;;5035617;28;20064;-75
2022/04/30 04:56:45;;;;;;;7.50;5.40;;;7.80;60.60;;;;;;5067470;28;20479;-75
2022/04/30 04:59:12;;;;;;;7.90;6.38;;;7.80;60.70;;;;;;5034087;28;20045;-76
2022/04/30 05:01:39;;;;;;;8.70;5.63;;;7.80;60.80;;;;;;5035144;28;20049;-75
2022/04/30 05:04:05;;;;;;;10.02;6.05;;;7.90;60.90;;;;;;5035250;28;20049;-75
2022/04/30 05:06:30;;;;;;;8.60;6.30;;;7.80;61.00;;;;;;5035380;28;20048;-76
2022/04/30 05:08:56;;;;;;;7.10;5.93;;;7.90;61.10;;;;;;5035304;28;20405;-75
2022/04/30 05:11:22;;;;;;;8.18;6.18;;;7.90;61.30;;;;;;5067256;28;20476;-75
2022/04/30 05:13:47;;;;;;;8.10;5.75;;;7.90;61.50;;;;;;5034425;28;20042;-75
2022/04/30 05:16:13;;;;;;;9.80;6.00;;;7.90;61.60;;;;;;5035811;28;20171;-76
2022/04/30 05:18:39;;;;;;;9.35;6.10;;;7.90;61.70;;;;;;5034438;28;20095;-76
2022/04/30 05:21:04;;;;;;;10.48;6.68;;;8.00;61.90;;;;;;5034237;28;20440;-76
2022/04/30 05:23:31;;;;;;;9.68;6.53;;;8.00;62.00;;;;;;5066996;28;20131;-76
2022/04/30 05:25:57;;;;;;;6.50;5.18;;;8.10;62.30;;;;;;5034868;28;20054;-76
2022/04/30 05:28:22;;;;;;;8.43;5.90;;;8.10;62.20;;;;;;5034844;28;20034;-76
2022/04/30 05:30:48;;;;;;;8.05;6.10;;;8.10;62.20;;;;;;5035008;28;20542;-74
2022/04/30 05:33:14;;;;;;;8.38;5.80;;;8.10;62.30;;;;;;5033988;28;20117;-75
2022/04/30 05:35:39;;;;;;;7.63;6.43;;;8.10;62.40;;;;;;5034552;28;20045;-75
2022/04/30 05:38:05;;;;;;;11.65;6.88;;;8.20;62.70;;;;;;5034851;28;20076;-75
2022/04/30 05:40:30;;;;;;;8.90;6.00;;;8.20;62.80;;;;;;5034695;28;20041;-75
2022/04/30 05:42:56;;;;;;;8.93;6.00;;;8.30;63.10;;;;;;5034458;28;20049;-75
2022/04/30 05:45:22;;;;;;;8.32;6.28;;;8.30;63.20;;;;;;5066533;28;20052;-75
2022/04/30 05:47:48;;;;;;;9.18;6.60;;;8.40;63.50;;;;;;5033379;28;20052;-75
2022/04/30 05:50:13;;;;;;;7.32;5.82;;;8.40;63.60;;;;;;5034461;28;20037;-76
2022/04/30 05:52:39;;;;;;;8.70;6.55;;;8.50;63.70;;;;;;5034288;28;20045;-76
2022/04/30 05:55:05;;;;;;;10.02;6.53;;;8.50;63.80;;;;;;5034542;28;20392;-74
2022/04/30 05:57:32;;;;;;;8.63;6.38;;;8.50;64.10;;;;;;5033316;28;20042;-74
2022/04/30 05:59:57;;;;;;;7.53;6.00;;;8.60;64.10;;;;;;5034320;28;20052;-75
2022/04/30 06:02:23;;;;;;;10.80;5.85;;;8.60;64.20;;;;;;5033090;28;20054;-76
2022/04/30 06:04:50;;;;;;;9.00;6.57;;;8.70;64.20;;;;;;5033204;28;20128;-75
2022/04/30 06:07:16;;;;;;;8.95;6.90;;;8.70;64.20;;;;;;5034036;28;20036;-76
2022/04/30 06:09:42;;;;;;;8.98;7.15;;;8.80;64.30;;;;;;5034256;28;20420;-75
2022/04/30 06:12:08;;;;;;;8.68;6.53;;;8.80;64.50;;;;;;5066156;28;20039;-76
2022/04/30 06:14:34;;;;;;;9.02;6.28;;;8.90;64.50;;;;;;5065982;28;20061;-75
2022/04/30 06:17:00;;;;;;;7.70;6.28;;;8.90;64.40;;;;;;5033956;28;20037;-75
2022/04/30 06:19:26;;;;;;;9.73;7.15;;;8.90;64.20;;;;;;5033888;28;20128;-74
2022/04/30 06:21:53;;;;;;;9.05;6.65;;;9.00;64.30;;;;;;5033318;28;20057;-75
2022/04/30 06:24:19;;;;;;;9.02;7.07;;;9.00;64.50;;;;;;5065909;28;20045;-75
2022/04/30 06:26:45;;;;;;;9.10;7.00;;;9.10;64.80;;;;;;5066215;28;20433;-75
2022/04/30 06:29:11;;;;;;;9.25;7.55;;;9.20;65.20;;;;;;5032567;28;20041;-75
2022/04/30 06:31:38;;;;;;;11.93;7.38;;;9.20;65.40;;;;;;5033883;28;20045;-75
2022/04/30 06:34:05;;;;;;;10.10;7.57;;;9.40;65.90;;;;;;5033713;28;20088;-75
2022/04/30 06:36:30;;;;;;;9.68;7.28;;;9.50;66.10;;;;;;5033614;28;20045;-75
2022/04/30 06:38:56;;;;;;;8.02;6.65;;;9.60;65.90;;;;;;5032938;28;20086;-75
2022/04/30 06:41:22;;;;;;;11.13;7.45;;;9.70;65.70;;;;;;5032988;28;20053;-75
2022/04/30 06:43:51;;;;;;;7.38;6.60;;;9.80;65.40;;;;;;5033881;28;20045;-75
2022/04/30 06:46:17;;;;;;;12.68;7.32;;;9.90;65.10;;;;;;5033781;28;20052;-75
2022/04/30 06:48:44;;;;;;;8.48;5.47;;;9.90;65.00;;;;;;5033634;28;20485;-75
2022/04/30 06:51:11;;;;;;;6.82;5.47;;;10.00;65.30;;;;;;5033830;28;20054;-74
2022/04/30 06:59:10;;;;;;;9.75;6.78;;;10.30;64.40;;;;;;5033567;28;20612;-75
2022/04/30 07:04:34;;;;;;;10.20;6.38;;;10.40;64.60;;;;;;5014981;28;20072;-76
2022/04/30 07:07:00;;;;;;;7.60;5.40;;;10.50;64.40;;;;;;5031315;28;20045;-75
2022/04/30 07:09:28;;;;;;;8.38;6.38;;;10.60;64.50;;;;;;5031384;28;20064;-76
2022/04/30 07:11:54;;;;;;;8.30;5.68;;;10.60;64.60;;;;;;5031361;28;20037;-76
2022/04/30 07:14:20;;;;;;;11.82;5.72;;;10.70;64.60;;;;;;5031209;28;20499;-76
2022/04/30 07:16:46;;;;;;;6.90;5.57;;;10.80;64.50;;;;;;5031088;28;20045;-76
2022/04/30 07:19:11;;;;;;;6.47;5.18;;;10.90;64.20;;;;;;5031299;28;20040;-75
2022/04/30 07:21:38;;;;;;;7.50;5.43;;;10.90;63.90;;;;;;5030893;28;20151;-76
2022/04/30 07:24:04;;;;;;;7.25;5.40;;;11.00;63.70;;;;;;5031192;28;20081;-75
2022/04/30 07:26:29;;;;;;;8.90;4.93;;;11.10;63.40;;;;;;5031139;28;20506;-75
2022/04/30 07:28:55;;;;;;;9.02;6.10;;;11.10;63.10;;;;;;5014637;28;20058;-75
2022/04/30 07:31:21;;;;;;;6.72;4.63;;;11.20;62.70;;;;;;5031075;28;20045;-75
2022/04/30 07:33:48;;;;;;;7.93;5.25;;;11.30;62.50;;;;;;5031237;28;20053;-74
2022/04/30 07:36:13;;;;;;;8.75;5.32;;;11.40;62.50;;;;;;5030572;28;20050;-75
2022/04/30 07:38:39;;;;;;;8.88;5.45;;;11.50;62.50;;;;;;5014427;28;20037;-75
2022/04/30 07:41:05;;;;;;;8.07;5.18;;;11.50;62.40;;;;;;5024084;28;20059;-75
2022/04/30 07:43:31;;;;;;;11.50;6.50;;;11.60;62.40;;;;;;5069120;28;20057;-76
2022/04/30 07:45:56;;;;;;;12.57;6.50;;;11.60;62.40;;;;;;5052128;28;20523;-76
2022/04/30 07:48:22;;;;;;;9.35;6.25;;;11.70;62.20;;;;;;5036647;28;20096;-76
2022/04/30 07:50:48;;;;;;;7.65;5.90;;;11.80;62.30;;;;;;5036753;28;20045;-76
2022/04/30 07:53:15;;;;;;;7.75;4.93;;;11.90;62.40;;;;;;5068958;28;20092;-76
2022/04/30 07:55:42;;;;;;;6.65;5.43;;;12.10;62.40;;;;;;5036543;28;20472;-76
2022/04/30 07:58:09;;;;;;;6.65;5.53;;;12.50;62.40;;;;;;5035560;28;20048;-76
2022/04/30 08:00:35;;;;;;;9.40;4.60;;;12.80;61.30;;;;;;5036338;28;20050;-76
2022/04/30 08:03:01;;;;;;;8.82;5.75;;;13.00;60.90;;;;;;5068281;28;20124;-77
2022/04/30 08:05:27;;;;;;;9.40;5.32;;;13.30;60.30;;;;;;5067635;28;20092;-77
2022/04/30 08:07:56;;;;;;;8.73;5.80;;;13.70;59.70;;;;;;5036386;28;20053;-75
2022/04/30 08:10:23;;;;;;;7.90;5.60;;;14.00;59.00;;;;;;5036328;28;20045;-75
2022/04/30 08:12:56;;;;;;;6.85;4.78;;;14.30;57.80;;;;;;5068445;28;20045;-75
2022/04/30 08:15:23;;;;;;;8.00;5.35;;;14.50;56.80;;;;;;5035324;28;20041;-75
2022/04/30 08:17:48;;;;;;;6.38;3.60;;;14.60;56.70;;;;;;5036241;28;20048;-75
2022/04/30 08:20:14;;;;;;;5.43;3.80;;;14.70;55.30;;;;;;5036407;28;20049;-75
2022/04/30 08:22:40;;;;;;;4.05;3.17;;;14.70;54.20;;;;;;5035820;28;20119;-76
2022/04/30 08:25:06;;;;;;;7.85;4.63;;;14.80;54.40;;;;;;5036021;28;20129;-75
2022/04/30 08:27:33;;;;;;;10.50;5.45;;;14.90;54.10;;;;;;5035911;28;20049;-75
2022/04/30 08:29:58;;;;;;;7.30;4.45;;;15.00;54.30;;;;;;5035747;28;20041;-75
2022/04/30 08:32:25;;;;;;;6.97;4.03;;;15.20;53.90;;;;;;5035023;28;20064;-75
2022/04/30 08:34:51;;;;;;;5.82;4.18;;;15.30;53.10;;;;;;5036067;28;20046;-74
2022/04/30 08:37:17;;;;;;;8.40;4.82;;;15.30;52.40;;;;;;5035714;28;20052;-75
2022/04/30 08:39:44;;;;;;;8.65;4.82;;;15.30;51.70;;;;;;5035861;28;20045;-76
2022/04/30 08:42:10;;;;;;;7.95;4.30;;;15.40;51.90;;;;;;5034372;28;20046;-75
2022/04/30 08:44:39;;;;;;;8.63;4.60;;;15.30;51.60;;;;;;5034929;28;20065;-75
2022/04/30 08:47:07;;;;;;;5.30;4.10;;;15.40;51.40;;;;;;5035610;28;20049;-76
2022/04/30 08:49:32;;;;;;;5.07;3.47;;;15.40;51.70;;;;;;5035528;28;20045;-75
2022/04/30 08:51:58;;;;;;;7.63;4.72;;;15.50;51.90;;;;;;5035442;28;20040;-75
2022/04/30 08:54:24;;;;;;;7.93;4.65;;;15.60;51.80;;;;;;5035605;28;20048;-76
2022/04/30 08:56:55;;;;;;;7.40;3.95;;;15.60;51.70;;;;;;5034130;28;20164;-75
2022/04/30 08:59:20;;;;;;;7.35;5.00;;;15.70;51.60;;;;;;5034151;28;20095;-75
2022/04/30 09:01:51;;;;;;;7.53;4.88;;;15.80;51.80;;;;;;5035176;28;20045;-75
2022/04/30 09:04:18;;;;;;;4.95;3.70;;;15.90;51.50;;;;;;5033490;28;20057;-75
2022/04/30 09:06:49;;;;;;;5.88;4.25;;;16.00;51.10;;;;;;5035163;28;20495;-75
2022/04/30 09:09:28;;;;;;;6.28;3.30;;;16.10;50.90;;;;;;5033902;28;20053;-75
2022/04/30 09:12:04;;;;;;;5.68;3.88;;;16.20;50.00;;;;;;5035218;28;20045;-76
2022/04/30 09:14:30;;;;;;;8.15;3.80;;;16.20;49.40;;;;;;5034915;28;20497;-76
2022/04/30 09:17:07;;;;;;;6.00;3.53;;;16.30;49.50;;;;;;5067297;28;20096;-76
2022/04/30 09:19:44;;;;;;;5.75;4.20;;;16.30;49.20;;;;;;5035030;28;20056;-76
2022/04/30 09:22:10;;;;;;;5.18;3.78;;;16.40;49.30;;;;;;5016990;28;20063;-76
2022/04/30 09:24:49;;;;;;;6.97;3.78;;;16.40;49.60;;;;;;5034898;28;20423;-76
2022/04/30 09:27:18;;;;;;;5.15;3.97;;;16.40;49.10;;;;;;5034209;28;20147;-76
2022/04/30 09:29:45;;;;;;;5.85;3.90;;;16.40;49.10;;;;;;5067020;28;20181;-76
2022/04/30 09:32:24;;;;;;;5.65;3.80;;;16.30;49.20;;;;;;5034716;28;20103;-76
2022/04/30 09:37:41;;;;;;;6.97;4.93;;;16.20;49.40;;;;;;5034887;28;20057;-76
2022/04/30 09:40:16;;;;;;;6.80;4.32;;;16.10;49.00;;;;;;5033785;28;20473;-75
2022/04/30 09:42:43;;;;;;;7.63;4.18;;;16.00;49.20;;;;;;5034502;28;20168;-75
2022/04/30 09:45:20;;;;;;;6.53;4.60;;;16.00;49.50;;;;;;5034538;28;20142;-75
2022/04/30 09:47:46;;;;;;;6.95;3.65;;;15.90;49.60;;;;;;5034452;28;20072;-75
2022/04/30 09:55:56;;;;;;;6.55;4.43;;;15.70;49.50;;;;;;5033111;28;20053;-76
2022/04/30 09:58:26;;;;;;;6.35;4.50;;;15.60;49.70;;;;;;5033297;28;20479;-76
2022/04/30 10:00:58;;;;;;;6.75;4.85;;;15.60;49.80;;;;;;5032750;28;20053;-76
2022/04/30 10:03:26;;;;;;;7.63;4.70;;;15.50;49.90;;;;;;5014477;28;20049;-76
2022/04/30 10:06:02;;;;;;;7.35;4.35;;;15.50;49.90;;;;;;5031994;28;20091;-76
2022/04/30 10:08:37;;;;;;;7.55;4.90;;;15.40;50.00;;;;;;5031961;28;20076;-76
2022/04/30 10:11:16;;;;;;;7.45;4.70;;;15.30;50.40;;;;;;5031453;28;20067;-76
2022/04/30 10:14:15;;;;;;;7.75;5.45;;;15.30;51.00;;;;;;5031885;28;20500;-76
2022/04/30 10:17:10;;;;;;;6.45;4.85;;;15.20;51.30;;;;;;5015332;28;20049;-76
2022/04/30 10:19:30;;;;;;;8.55;5.00;;;15.10;51.20;;;;;;5015196;28;20045;-76
2022/04/30 10:22:16;;;;;;;7.32;5.07;;;15.10;51.40;;;;;;5031573;28;20132;-76
2022/04/30 10:24:47;;;;;;;7.13;4.90;;;15.00;51.20;;;;;;5015502;28;20080;-76
2022/04/30 10:27:13;;;;;;;6.43;4.65;;;14.90;51.10;;;;;;5031225;28;20045;-76
2022/04/30 10:29:50;;;;;;;9.60;4.80;;;14.90;51.10;;;;;;5031620;28;20041;-76
2022/04/30 10:32:33;;;;;;;6.30;4.72;;;14.90;51.10;;;;;;5032419;28;20457;-76
2022/04/30 10:35:00;;;;;;;7.63;4.40;;;14.80;51.10;;;;;;5033954;28;20057;-76
2022/04/30 10:37:34;;;;;;;8.18;4.72;;;14.70;50.90;;;;;;5033847;28;20125;-76
2022/04/30 10:40:04;;;;;;;10.15;4.30;;;14.70;50.50;;;;;;5032473;28;20045;-77
2022/04/30 10:42:39;;;;;;;7.40;4.50;;;14.60;50.60;;;;;;5033568;28;20064;-76
2022/04/30 10:45:07;;;;;;;7.35;4.45;;;14.60;50.80;;;;;;5033798;28;20053;-76
2022/04/30 10:47:33;;;;;;;7.35;4.28;;;14.50;50.90;;;;;;5033818;28;20049;-76
2022/04/30 10:50:00;;;;;;;7.63;4.63;;;14.50;51.00;;;;;;5065496;28;20045;-76
2022/04/30 10:52:26;;;;;;;5.35;3.72;;;14.50;51.00;;;;;;5032332;28;20053;-76
2022/04/30 10:54:54;;;;;;;7.57;4.57;;;14.50;50.80;;;;;;5065593;28;20045;-76
2022/04/30 10:57:20;;;;;;;5.55;3.95;;;14.40;51.00;;;;;;5033032;28;20049;-76
2022/04/30 11:00:01;;;;;;;7.60;5.18;;;14.40;51.40;;;;;;5033643;28;20107;-77
2022/04/30 11:02:31;;;;;;;7.07;4.50;;;14.40;51.40;;;;;;5032871;28;20056;-77
2022/04/30 11:04:57;;;;;;;6.45;4.32;;;14.40;51.60;;;;;;5033454;28;20489;-76
2022/04/30 11:07:28;;;;;;;8.02;4.53;;;14.40;51.70;;;;;;5032238;28;20088;-76
2022/04/30 11:09:54;;;;;;;6.15;3.90;;;14.40;51.70;;;;;;5065340;28;20124;-76
2022/04/30 11:12:20;;;;;;;8.75;4.45;;;14.40;51.50;;;;;;5033691;28;20128;-76
2022/04/30 11:14:46;;;;;;;5.88;3.90;;;14.40;51.40;;;;;;5032275;28;20045;-76
2022/04/30 11:17:12;;;;;;;7.07;4.15;;;14.40;51.20;;;;;;5069564;28;20045;-77
2022/04/30 11:19:42;;;;;;;6.68;4.32;;;14.40;51.30;;;;;;5037209;28;20522;-77
2022/04/30 11:22:09;;;;;;;5.03;4.07;;;14.40;51.50;;;;;;5036967;28;20157;-76
2022/04/30 11:24:38;;;;;;;8.02;4.30;;;14.40;51.50;;;;;;5069124;28;20110;-77
2022/04/30 11:27:08;;;;;;;6.00;3.97;;;14.50;51.70;;;;;;5069581;28;20049;-76
2022/04/30 11:29:36;;;;;;;6.95;4.78;;;14.50;51.80;;;;;;5036976;28;20041;-77
2022/04/30 11:32:04;;;;;;;5.10;3.67;;;14.50;51.60;;;;;;5069488;28;20045;-74
2022/04/30 11:34:29;;;;;;;7.35;4.32;;;14.50;51.60;;;;;;5052643;28;20058;-76
2022/04/30 11:37:00;;;;;;;8.55;5.03;;;14.50;51.40;;;;;;5036938;28;20041;-76
2022/04/30 11:39:27;;;;;;;9.60;5.55;;;14.50;50.70;;;;;;5037047;28;20049;-74
2022/04/30 11:41:55;;;;;;;9.05;4.40;;;14.50;50.70;;;;;;5035527;28;20049;-75
2022/04/30 11:44:22;;;;;;;8.40;4.95;;;14.50;51.30;;;;;;5036919;28;20042;-76
2022/04/30 11:46:51;;;;;;;7.07;4.90;;;14.60;51.00;;;;;;5036784;28;20064;-75
2022/04/30 11:49:23;;;;;;;7.75;5.25;;;14.60;51.00;;;;;;5018802;28;20049;-75
2022/04/30 11:51:50;;;;;;;9.73;5.53;;;14.60;51.20;;;;;;5035357;28;20049;-75
2022/04/30 11:54:19;;;;;;;5.65;4.32;;;14.60;50.60;;;;;;5036894;28;20071;-76
2022/04/30 11:56:46;;;;;;;6.20;4.47;;;14.70;50.60;;;;;;5035343;28;20041;-76
2022/04/30 11:59:12;;;;;;;6.40;4.43;;;14.70;51.00;;;;;;5035777;28;20120;-75
2022/04/30 12:01:39;;;;;;;5.35;3.67;;;14.70;50.80;;;;;;5036391;28;20124;-76
2022/04/30 12:04:11;;;;;;;6.95;3.97;;;14.70;51.10;;;;;;5035393;28;20053;-77
2022/04/30 12:06:38;;;;;;;5.20;4.28;;;14.80;50.60;;;;;;5036646;28;20041;-76
2022/04/30 12:09:18;;;;;;;7.03;4.07;;;14.80;50.60;;;;;;5051656;28;20049;-76
2022/04/30 12:11:47;;;;;;;6.22;3.72;;;14.90;49.90;;;;;;5036466;28;20042;-77
2022/04/30 12:14:13;;;;;;;5.28;4.30;;;14.90;49.90;;;;;;5068422;28;20049;-76
2022/04/30 12:16:40;;;;;;;7.03;4.18;;;14.90;49.70;;;;;;5068513;28;20053;-76
2022/04/30 12:25:10;;;;;;;5.65;4.25;;;15.10;50.10;;;;;;5035861;28;20424;-77
2022/04/30 12:27:41;;;;;;;6.95;4.45;;;15.10;49.70;;;;;;5034053;28;20129;-77
2022/04/30 12:30:14;;;;;;;6.18;4.25;;;15.20;49.70;;;;;;5036132;28;20057;-77
2022/04/30 12:32:46;;;;;;;6.43;4.03;;;15.20;49.70;;;;;;5035075;28;20081;-77
2022/04/30 12:35:14;;;;;;;5.70;3.85;;;15.30;50.00;;;;;;5035958;28;20060;-76
2022/04/30 12:37:40;;;;;;;7.00;4.95;;;15.30;49.60;;;;;;5034645;28;20405;-76
2022/04/30 12:40:06;;;;;;;4.68;4.03;;;15.40;49.20;;;;;;5035676;28;20045;-76
2022/04/30 12:42:32;;;;;;;6.10;4.20;;;15.40;48.90;;;;;;5067689;28;20411;-76
2022/04/30 12:44:58;;;;;;;7.60;4.55;;;15.40;49.10;;;;;;5034540;28;20047;-76
2022/04/30 12:47:23;;;;;;;7.57;4.80;;;15.40;49.00;;;;;;5034958;28;20048;-74
2022/04/30 12:49:49;;;;;;;6.15;4.32;;;15.50;48.70;;;;;;5067386;28;20092;-75
2022/04/30 12:52:15;;;;;;;6.65;4.70;;;15.60;48.50;;;;;;5035477;28;20045;-75
2022/04/30 12:54:41;;;;;;;5.20;4.00;;;15.60;48.80;;;;;;5035419;28;20534;-75
2022/04/30 12:57:07;;;;;;;6.57;3.88;;;15.60;48.90;;;;;;5018235;28;20056;-74
2022/04/30 12:59:37;;;;;;;5.68;4.28;;;15.60;48.80;;;;;;5035232;28;20041;-75
2022/04/30 13:02:04;;;;;;;6.68;4.70;;;15.60;48.70;;;;;;5067330;28;20476;-74
2022/04/30 13:04:29;;;;;;;7.13;4.25;;;15.60;48.30;;;;;;5067587;28;20499;-74
2022/04/30 13:06:55;;;;;;;7.07;4.30;;;15.70;47.40;;;;;;5034216;28;20057;-75
2022/04/30 13:14:57;;;;;;;7.07;4.68;;;15.70;47.20;;;;;;5016440;28;20054;-76
2022/04/30 13:17:23;;;;;;;5.88;4.72;;;15.60;46.70;;;;;;5032758;28;20203;-75
2022/04/30 13:19:51;;;;;;;6.43;5.03;;;15.50;47.40;;;;;;5032605;28;20046;-75
2022/04/30 13:22:16;;;;;;;7.15;4.03;;;15.50;48.00;;;;;;5032488;28;20100;-75
2022/04/30 13:24:42;;;;;;;8.65;5.38;;;15.50;48.40;;;;;;5015750;28;20080;-76
2022/04/30 13:27:08;;;;;;;8.27;4.32;;;15.50;48.00;;;;;;5032978;28;20467;-75
2022/04/30 13:29:33;;;;;;;8.40;4.72;;;15.50;48.40;;;;;;5032565;28;20049;-76
2022/04/30 13:31:59;;;;;;;6.28;5.05;;;15.50;48.40;;;;;;5032641;28;20084;-75
2022/04/30 13:34:24;;;;;;;8.15;4.63;;;15.40;48.70;;;;;;5032488;28;20136;-75
2022/04/30 13:36:50;;;;;;;6.07;4.30;;;15.40;49.30;;;;;;5032623;28;20049;-75
2022/04/30 13:39:16;;;;;;;7.00;4.43;;;15.40;49.00;;;;;;5031911;28;20076;-75
2022/04/30 13:41:42;;;;;;;6.13;4.88;;;15.40;49.20;;;;;;5032408;28;20611;-75